createdAt,value
2023-05-10T00:00:32.467Z,15.50
2023-05-10T00:03:00.568Z,15.40
2023-05-10T00:05:30.063Z,15.40
2023-05-10T00:07:58.070Z,15.40
2023-05-10T00:10:26.053Z,15.40
2023-05-10T00:12:54.105Z,15.40
2023-05-10T00:15:22.233Z,15.40
2023-05-10T00:17:50.436Z,15.40
2023-05-10T00:20:18.738Z,15.40
2023-05-10T00:22:48.201Z,15.50
2023-05-10T00:25:16.410Z,15.40
2023-05-10T00:27:44.384Z,15.50
2023-05-10T00:30:13.172Z,15.40
2023-05-10T00:32:41.392Z,15.40
2023-05-10T00:35:10.614Z,15.40
2023-05-10T00:37:38.674Z,15.40
2023-05-10T00:40:09.546Z,15.40
2023-05-10T00:42:37.535Z,15.40
2023-05-10T00:45:06.897Z,15.40
2023-05-10T00:47:35.078Z,15.50
2023-05-10T00:50:04.334Z,15.50
2023-05-10T00:52:33.418Z,15.40
2023-05-10T00:55:02.069Z,15.40
2023-05-10T00:57:31.485Z,15.40
2023-05-10T01:00:01.243Z,15.30
2023-05-10T01:02:29.487Z,15.30
2023-05-10T01:04:58.644Z,15.30
2023-05-10T01:07:26.848Z,15.30
2023-05-10T01:13:59.262Z,15.40
2023-05-10T01:16:29.734Z,15.40
2023-05-10T01:18:57.791Z,15.40
2023-05-10T01:21:34.382Z,15.40
2023-05-10T01:24:40.748Z,15.40
2023-05-10T01:27:43.665Z,15.40
2023-05-10T01:30:41.635Z,15.40
2023-05-10T01:33:17.462Z,15.40
2023-05-10T01:35:49.697Z,15.40
2023-05-10T01:38:21.179Z,15.40
2023-05-10T01:40:59.352Z,15.40
2023-05-10T01:43:32.033Z,15.40
2023-05-10T01:46:11.327Z,15.40
2023-05-10T01:48:47.240Z,15.40
2023-05-10T01:51:17.662Z,15.40
2023-05-10T01:53:48.356Z,15.40
2023-05-10T01:56:18.919Z,15.40
2023-05-10T01:58:49.421Z,15.30
2023-05-10T02:01:18.546Z,15.30
2023-05-10T02:03:49.704Z,15.20
2023-05-10T02:06:20.324Z,15.20
2023-05-10T02:08:49.762Z,15.20
2023-05-10T02:11:19.703Z,15.10
2023-05-10T02:13:50.329Z,15.00
2023-05-10T02:16:20.368Z,15.00
2023-05-10T02:18:52.146Z,15.00
2023-05-10T02:21:21.134Z,15.00
2023-05-10T02:23:52.973Z,15.00
2023-05-10T02:26:24.426Z,15.00
2023-05-10T02:28:53.869Z,15.00
2023-05-10T02:31:24.394Z,14.90
2023-05-10T02:33:54.292Z,14.90
2023-05-10T02:36:24.798Z,15.00
2023-05-10T02:38:54.798Z,15.00
2023-05-10T02:41:27.272Z,14.90
2023-05-10T02:43:59.238Z,14.90
2023-05-10T02:46:27.419Z,14.90
2023-05-10T02:48:56.833Z,14.90
2023-05-10T02:51:30.284Z,14.90
2023-05-10T02:53:59.320Z,14.80
2023-05-10T02:56:31.737Z,14.80
2023-05-10T02:58:59.839Z,14.90
2023-05-10T03:01:28.031Z,14.90
2023-05-10T03:03:57.367Z,14.80
2023-05-10T03:06:25.566Z,14.90
2023-05-10T03:08:53.568Z,14.90
2023-05-10T03:11:34.939Z,14.90
2023-05-10T03:14:16.504Z,14.90
2023-05-10T03:16:48.838Z,14.80
2023-05-10T03:19:25.813Z,14.90
2023-05-10T03:21:55.764Z,14.90
2023-05-10T03:24:27.851Z,14.90
2023-05-10T03:27:00.976Z,14.90
2023-05-10T03:29:31.750Z,14.90
2023-05-10T03:32:00.618Z,14.90
2023-05-10T03:34:32.589Z,14.90
2023-05-10T03:37:00.933Z,14.90
2023-05-10T03:39:32.251Z,15.00
2023-05-10T03:42:02.236Z,15.00
2023-05-10T03:44:32.034Z,15.00
2023-05-10T03:47:00.087Z,15.00
2023-05-10T03:49:28.179Z,15.00
2023-05-10T03:51:57.656Z,15.10
2023-05-10T03:54:25.598Z,15.10
2023-05-10T03:56:53.551Z,15.10
2023-05-10T03:59:23.003Z,15.10
2023-05-10T04:01:53.143Z,15.10
2023-05-10T04:04:22.363Z,15.10
2023-05-10T04:06:51.545Z,15.20
2023-05-10T04:09:20.909Z,15.20
2023-05-10T04:11:49.054Z,15.10
2023-05-10T04:14:17.391Z,15.20
2023-05-10T04:16:45.375Z,15.20
2023-05-10T04:19:13.374Z,15.20
2023-05-10T04:21:41.394Z,15.20
2023-05-10T04:24:09.474Z,15.20
2023-05-10T04:26:38.804Z,15.20
2023-05-10T04:29:06.779Z,15.20
2023-05-10T04:31:35.231Z,15.10
2023-05-10T04:34:03.187Z,15.10
2023-05-10T04:36:31.196Z,15.10
2023-05-10T04:38:59.155Z,15.10
2023-05-10T04:41:27.246Z,15.20
2023-05-10T04:43:56.585Z,15.20
2023-05-10T04:46:24.733Z,15.10
2023-05-10T04:48:52.804Z,15.10
2023-05-10T04:51:21.408Z,15.10
2023-05-10T04:54:01.518Z,15.10
2023-05-10T04:56:33.009Z,15.20
2023-05-10T04:59:02.416Z,15.20
2023-05-10T05:01:30.459Z,15.10
2023-05-10T05:03:58.660Z,15.10
2023-05-10T05:06:28.082Z,15.20
2023-05-10T05:08:56.355Z,15.20
2023-05-10T05:11:24.379Z,15.20
2023-05-10T05:13:52.488Z,15.10
2023-05-10T05:16:22.433Z,15.20
2023-05-10T05:18:50.494Z,15.20
2023-05-10T05:21:19.423Z,15.30
2023-05-10T05:23:47.541Z,15.20
2023-05-10T05:26:15.950Z,15.20
2023-05-10T05:28:44.157Z,15.30
2023-05-10T05:31:12.275Z,15.30
2023-05-10T05:33:41.633Z,15.30
2023-05-10T05:36:10.004Z,15.30
2023-05-10T05:38:44.539Z,15.30
2023-05-10T05:41:13.053Z,15.30
2023-05-10T05:43:41.088Z,15.30
2023-05-10T05:46:09.095Z,15.30
2023-05-10T05:48:37.438Z,15.30
2023-05-10T05:51:07.361Z,15.30
2023-05-10T05:53:35.504Z,15.30
2023-05-10T05:56:04.582Z,15.30
2023-05-10T05:58:32.545Z,15.30
2023-05-10T06:01:00.580Z,15.30
2023-05-10T06:03:28.761Z,15.30
2023-05-10T06:05:56.798Z,15.30
2023-05-10T06:08:26.742Z,15.30
2023-05-10T06:10:54.745Z,15.40
2023-05-10T06:13:22.794Z,15.40
2023-05-10T06:15:50.784Z,15.40
2023-05-10T06:18:18.783Z,15.40
2023-05-10T06:20:46.764Z,15.40
2023-05-10T06:23:14.709Z,15.40
2023-05-10T06:25:44.008Z,15.40
2023-05-10T06:28:12.137Z,15.40
2023-05-10T06:30:40.080Z,15.40
2023-05-10T06:33:08.108Z,15.40
2023-05-10T06:35:36.117Z,15.40
2023-05-10T06:38:04.140Z,15.30
2023-05-10T06:40:32.106Z,15.40
2023-05-10T06:43:01.439Z,15.40
2023-05-10T06:45:29.468Z,15.30
2023-05-10T06:47:57.535Z,15.40
2023-05-10T06:50:25.542Z,15.40
2023-05-10T06:52:53.547Z,15.50
2023-05-10T06:55:21.601Z,15.40
2023-05-10T06:57:49.571Z,15.40
2023-05-10T07:00:20.524Z,15.30
2023-05-10T07:02:49.568Z,15.30
2023-05-10T07:05:18.243Z,15.30
2023-05-10T07:07:46.457Z,15.20
2023-05-10T07:10:14.477Z,15.20
2023-05-10T07:12:42.618Z,15.30
2023-05-10T07:15:11.620Z,15.20
2023-05-10T07:17:43.231Z,15.20
2023-05-10T07:20:13.891Z,15.20
2023-05-10T07:22:41.906Z,15.20
2023-05-10T07:25:10.447Z,15.20
2023-05-10T07:27:38.483Z,15.30
2023-05-10T07:30:08.060Z,15.30
2023-05-10T07:32:36.146Z,15.30
2023-05-10T07:35:06.475Z,15.30
2023-05-10T07:37:34.480Z,15.40
2023-05-10T07:40:03.002Z,15.40
2023-05-10T07:42:31.049Z,15.40
2023-05-10T07:44:59.067Z,15.40
2023-05-10T07:47:27.076Z,15.40
2023-05-10T07:49:55.151Z,15.50
2023-05-10T07:52:24.539Z,15.40
2023-05-10T07:54:52.925Z,15.40
2023-05-10T07:57:20.929Z,15.50
2023-05-10T07:59:48.938Z,15.40
2023-05-10T08:02:16.948Z,15.50
2023-05-10T08:04:45.007Z,15.40
2023-05-10T08:07:13.141Z,15.40
2023-05-10T08:09:42.458Z,15.40
2023-05-10T08:12:10.676Z,15.40
2023-05-10T08:14:38.699Z,15.40
2023-05-10T08:17:06.825Z,15.40
2023-05-10T08:19:34.866Z,15.50
2023-05-10T08:22:02.923Z,15.40
2023-05-10T08:24:30.910Z,15.40
2023-05-10T08:27:00.271Z,15.40
2023-05-10T08:29:30.394Z,15.40
2023-05-10T08:31:58.656Z,15.40
2023-05-10T08:34:27.280Z,15.40
2023-05-10T08:36:55.387Z,15.30
2023-05-10T08:39:30.326Z,15.40
2023-05-10T08:42:03.870Z,15.40
2023-05-10T08:44:33.099Z,15.50
2023-05-10T08:47:03.931Z,15.50
2023-05-10T08:49:33.727Z,15.50
2023-05-10T08:52:06.277Z,15.60
2023-05-10T08:54:35.127Z,15.70
2023-05-10T08:57:04.927Z,15.60
2023-05-10T08:59:34.094Z,15.50
2023-05-10T09:02:02.474Z,15.50
2023-05-10T09:04:31.954Z,15.60
2023-05-10T09:07:00.181Z,15.50
2023-05-10T09:09:29.245Z,15.50
2023-05-10T09:11:57.587Z,15.50
2023-05-10T09:14:27.832Z,15.40
2023-05-10T09:16:56.982Z,15.40
2023-05-10T09:19:24.942Z,15.50
2023-05-10T09:21:53.020Z,15.40
2023-05-10T09:24:21.076Z,15.40
2023-05-10T09:26:50.172Z,15.50
2023-05-10T09:29:18.382Z,15.50
2023-05-10T09:31:49.166Z,15.60
2023-05-10T09:34:21.845Z,15.60
2023-05-10T09:36:54.662Z,15.60
2023-05-10T09:39:23.124Z,15.60
2023-05-10T09:41:51.149Z,15.60
2023-05-10T09:44:20.443Z,15.50
2023-05-10T09:46:53.832Z,15.50
2023-05-10T09:49:23.387Z,15.40
2023-05-10T09:52:02.660Z,15.30
2023-05-10T09:54:30.854Z,15.40
2023-05-10T09:56:58.922Z,15.50
2023-05-10T09:59:28.975Z,15.60
2023-05-10T10:02:01.410Z,15.60
2023-05-10T10:04:29.981Z,15.60
2023-05-10T10:07:02.907Z,15.50
2023-05-10T10:09:31.015Z,15.60
2023-05-10T10:11:59.727Z,15.60
2023-05-10T10:14:27.933Z,15.50
2023-05-10T10:17:07.402Z,15.50
2023-05-10T10:19:38.495Z,15.50
2023-05-10T10:22:06.825Z,15.60
2023-05-10T10:24:35.072Z,15.70
2023-05-10T10:27:12.393Z,15.80
2023-05-10T10:29:49.516Z,15.90
2023-05-10T10:32:28.439Z,16.00
2023-05-10T10:34:58.344Z,16.10
2023-05-10T10:37:42.882Z,16.20
2023-05-10T10:40:26.114Z,16.20
2023-05-10T10:42:54.658Z,16.20
2023-05-10T10:45:23.886Z,16.30
2023-05-10T10:48:16.047Z,16.50
2023-05-10T10:50:48.386Z,16.60
2023-05-10T10:53:16.469Z,16.60
2023-05-10T10:55:49.393Z,16.70
2023-05-10T10:58:33.188Z,16.80
2023-05-10T11:01:22.314Z,16.80
2023-05-10T11:04:21.427Z,16.80
2023-05-10T11:06:50.948Z,16.90
2023-05-10T11:09:19.045Z,17.00
2023-05-10T11:11:56.022Z,17.10
2023-05-10T11:14:24.587Z,17.20
2023-05-10T11:16:53.064Z,17.30
2023-05-10T11:19:21.591Z,17.30
2023-05-10T11:21:52.143Z,17.30
2023-05-10T11:24:23.131Z,17.30
2023-05-10T11:26:53.139Z,17.20
2023-05-10T11:29:21.345Z,17.20
2023-05-10T11:31:51.633Z,17.10
2023-05-10T11:34:26.361Z,17.00
2023-05-10T11:36:57.113Z,17.00
2023-05-10T11:39:29.408Z,17.10
2023-05-10T11:41:57.822Z,17.10
2023-05-10T11:44:30.838Z,17.10
2023-05-10T11:47:01.128Z,17.20
2023-05-10T11:49:29.461Z,17.20
2023-05-10T11:52:08.084Z,17.30
2023-05-10T11:54:36.813Z,17.40
2023-05-10T11:57:05.303Z,17.20
2023-05-10T11:59:33.395Z,17.10
2023-05-10T12:02:01.821Z,17.10
2023-05-10T12:04:30.404Z,17.00
2023-05-10T12:06:58.911Z,17.00
2023-05-10T12:09:42.649Z,17.10
2023-05-10T12:12:11.701Z,17.10
2023-05-10T12:14:39.726Z,17.10
2023-05-10T12:17:07.725Z,17.00
2023-05-10T12:19:41.753Z,17.00
2023-05-10T12:22:09.912Z,17.10
2023-05-10T12:24:39.910Z,17.10
2023-05-10T12:27:09.638Z,17.20
2023-05-10T12:29:38.029Z,17.20
2023-05-10T12:32:06.272Z,17.30
2023-05-10T12:34:36.019Z,17.40
2023-05-10T12:37:04.674Z,17.50
2023-05-10T12:39:44.017Z,17.60
2023-05-10T12:42:12.457Z,17.60
2023-05-10T12:44:41.222Z,17.60
2023-05-10T12:47:09.644Z,17.60
2023-05-10T12:49:37.587Z,17.60
2023-05-10T12:52:05.708Z,17.70
2023-05-10T12:54:33.744Z,17.70
2023-05-10T12:57:03.113Z,17.70
2023-05-10T12:59:31.204Z,17.70
2023-05-10T13:01:59.676Z,17.60
2023-05-10T13:04:27.718Z,17.60
2023-05-10T13:06:57.052Z,17.60
2023-05-10T13:09:25.914Z,17.70
2023-05-10T13:11:54.444Z,17.70
2023-05-10T13:14:23.828Z,17.90
2023-05-10T13:16:51.842Z,18.00
2023-05-10T13:19:19.993Z,18.00
2023-05-10T13:21:48.034Z,18.00
2023-05-10T13:24:16.062Z,18.10
2023-05-10T13:26:44.007Z,18.20
2023-05-10T13:29:12.010Z,18.20
2023-05-10T13:31:41.461Z,18.10
2023-05-10T13:34:09.521Z,18.10
2023-05-10T13:36:37.511Z,17.90
2023-05-10T13:39:06.291Z,18.00
2023-05-10T13:41:35.019Z,18.00
2023-05-10T13:44:03.068Z,18.10
2023-05-10T13:46:31.820Z,18.50
2023-05-10T13:49:01.268Z,18.90
2023-05-10T13:51:29.397Z,19.10
2023-05-10T13:53:57.449Z,19.20
2023-05-10T13:56:25.535Z,19.10
2023-05-10T13:58:53.847Z,19.10
2023-05-10T14:01:21.915Z,19.10
2023-05-10T14:03:50.032Z,19.00
2023-05-10T14:06:19.554Z,19.00
2023-05-10T14:08:47.654Z,18.90
2023-05-10T14:11:16.234Z,18.90
2023-05-10T14:13:44.226Z,18.90
2023-05-10T14:16:12.526Z,18.90
2023-05-10T14:18:40.670Z,18.90
2023-05-10T14:21:08.696Z,19.00
2023-05-10T14:23:38.092Z,19.40
2023-05-10T14:26:06.229Z,19.50
2023-05-10T14:28:34.288Z,19.40
2023-05-10T14:31:02.561Z,19.50
2023-05-10T14:33:30.672Z,19.70
2023-05-10T14:35:58.676Z,20.00
2023-05-10T14:38:27.524Z,20.10
2023-05-10T14:40:56.884Z,20.00
2023-05-10T14:43:25.080Z,19.80
2023-05-10T14:45:53.085Z,19.50
2023-05-10T14:48:22.204Z,19.30
2023-05-10T14:50:50.611Z,19.20
2023-05-10T14:53:18.970Z,19.00
2023-05-10T14:55:46.997Z,18.90
2023-05-10T14:58:16.318Z,18.70
2023-05-10T15:00:44.408Z,18.70
2023-05-10T15:03:13.090Z,18.50
2023-05-10T15:05:42.105Z,18.50
2023-05-10T15:08:10.373Z,18.40
2023-05-10T15:10:38.707Z,18.30
2023-05-10T15:13:06.942Z,18.30
2023-05-10T15:15:36.401Z,18.20
2023-05-10T15:18:05.495Z,18.10
2023-05-10T15:20:33.611Z,17.90
2023-05-10T15:23:01.597Z,17.80
2023-05-10T15:25:29.843Z,17.90
2023-05-10T15:27:57.870Z,17.90
2023-05-10T15:30:25.918Z,18.00
2023-05-10T15:32:55.265Z,17.90
2023-05-10T15:35:23.335Z,17.80
2023-05-10T15:37:51.384Z,17.80
2023-05-10T15:40:19.469Z,17.80
2023-05-10T15:42:47.544Z,17.80
2023-05-10T15:45:16.368Z,17.70
2023-05-10T15:47:45.135Z,17.70
2023-05-10T15:50:14.674Z,17.60
2023-05-10T15:52:43.426Z,17.50
2023-05-10T15:55:13.076Z,17.40
2023-05-10T15:57:42.312Z,17.40
2023-05-10T16:00:11.849Z,17.30
2023-05-10T16:02:42.763Z,17.20
2023-05-10T16:05:11.295Z,17.10
2023-05-10T16:07:41.696Z,17.00
2023-05-10T16:10:11.581Z,17.00
2023-05-10T16:12:40.115Z,17.00
2023-05-10T16:15:09.741Z,17.10
2023-05-10T16:17:37.960Z,17.10
2023-05-10T16:20:08.301Z,17.10
2023-05-10T16:22:36.913Z,17.20
2023-05-10T16:25:07.398Z,17.20
2023-05-10T16:27:35.462Z,17.20
2023-05-10T16:30:04.364Z,17.20
2023-05-10T16:32:32.904Z,17.20
2023-05-10T16:35:01.061Z,17.40
2023-05-10T16:37:29.807Z,17.40
2023-05-10T16:39:57.944Z,17.40
2023-05-10T16:42:28.809Z,17.30
2023-05-10T16:44:56.992Z,17.10
2023-05-10T16:47:26.984Z,17.10
2023-05-10T16:49:55.491Z,17.10
2023-05-10T16:52:23.806Z,17.10
2023-05-10T16:54:51.935Z,17.10
2023-05-10T16:57:20.005Z,17.10
2023-05-10T16:59:49.467Z,17.20
2023-05-10T17:02:17.583Z,17.20
2023-05-10T17:04:45.632Z,17.30
2023-05-10T17:07:14.087Z,17.30
2023-05-10T17:09:43.667Z,17.30
2023-05-10T17:12:12.013Z,17.50
2023-05-10T17:14:40.126Z,17.70
2023-05-10T17:17:09.515Z,17.70
2023-05-10T17:19:37.520Z,17.60
2023-05-10T17:22:05.538Z,17.60
2023-05-10T17:24:33.521Z,17.50
2023-05-10T17:27:03.447Z,17.30
2023-05-10T17:29:32.144Z,17.30
2023-05-10T17:32:00.642Z,17.30
2023-05-10T17:34:30.169Z,17.30
2023-05-10T17:36:58.428Z,17.20
2023-05-10T17:39:26.395Z,17.10
2023-05-10T17:41:54.406Z,17.00
2023-05-10T17:44:22.490Z,16.90
2023-05-10T17:46:50.492Z,16.60
2023-05-10T17:49:18.524Z,16.50
2023-05-10T17:51:48.290Z,16.50
2023-05-10T17:54:16.408Z,16.60
2023-05-10T17:56:44.437Z,16.60
2023-05-10T17:59:12.411Z,16.60
2023-05-10T18:01:41.445Z,16.60
2023-05-10T18:04:09.502Z,16.50
2023-05-10T18:06:38.225Z,16.50
2023-05-10T18:09:07.660Z,16.60
2023-05-10T18:11:36.398Z,16.60
2023-05-10T18:14:04.636Z,16.70
2023-05-10T18:16:32.838Z,16.80
2023-05-10T18:19:01.142Z,16.80
2023-05-10T18:21:29.208Z,16.80
2023-05-10T18:23:57.274Z,16.80
2023-05-10T18:26:27.688Z,16.70
2023-05-10T18:28:55.761Z,16.70
2023-05-10T18:31:24.016Z,16.70
2023-05-10T18:33:52.253Z,16.60
2023-05-10T18:36:20.313Z,16.50
2023-05-10T18:38:48.606Z,16.40
2023-05-10T18:41:17.043Z,16.40
2023-05-10T18:43:46.435Z,16.40
2023-05-10T18:46:15.064Z,16.40
2023-05-10T18:48:43.220Z,16.50
2023-05-10T18:51:12.492Z,16.50
2023-05-10T18:53:40.638Z,16.50
2023-05-10T18:56:08.823Z,16.30
2023-05-10T18:58:36.976Z,16.20
2023-05-10T19:01:06.912Z,16.20
2023-05-10T19:03:34.931Z,16.20
2023-05-10T19:06:02.965Z,16.10
2023-05-10T19:08:31.149Z,16.00
2023-05-10T19:10:59.161Z,16.00
2023-05-10T19:13:28.783Z,16.00
2023-05-10T19:16:12.695Z,15.90
2023-05-10T19:18:42.634Z,15.90
2023-05-10T19:21:11.393Z,15.90
2023-05-10T19:23:41.576Z,15.90
2023-05-10T19:26:10.851Z,15.90
2023-05-10T19:28:39.075Z,15.80
2023-05-10T19:31:09.023Z,15.80
2023-05-10T19:33:37.318Z,15.70
2023-05-10T19:36:05.451Z,15.80
2023-05-10T19:38:34.264Z,15.70
2023-05-10T19:41:02.324Z,15.80
2023-05-10T19:43:34.350Z,15.80
2023-05-10T19:46:03.581Z,15.80
2023-05-10T19:48:33.094Z,15.80
2023-05-10T19:51:02.600Z,15.90
2023-05-10T19:53:31.546Z,15.80
2023-05-10T19:56:04.844Z,15.80
2023-05-10T19:58:33.164Z,15.70
2023-05-10T20:01:01.316Z,15.70
2023-05-10T20:03:29.532Z,15.70
2023-05-10T20:05:58.917Z,15.70
2023-05-10T20:08:27.050Z,15.60
2023-05-10T20:10:55.064Z,15.60
2023-05-10T20:13:23.076Z,15.50
2023-05-10T20:15:51.049Z,15.50
2023-05-10T20:18:19.063Z,15.40
2023-05-10T20:20:47.118Z,15.40
2023-05-10T20:23:16.509Z,15.40
2023-05-10T20:25:44.567Z,15.30
2023-05-10T20:28:13.118Z,15.30
2023-05-10T20:30:41.138Z,15.30
2023-05-10T20:33:09.399Z,15.30
2023-05-10T20:35:37.638Z,15.30
2023-05-10T20:38:05.633Z,15.30
2023-05-10T20:40:36.320Z,15.20
2023-05-10T20:43:05.353Z,15.20
2023-05-10T20:45:33.771Z,15.10
2023-05-10T20:48:02.314Z,15.10
2023-05-10T20:50:30.394Z,15.10
2023-05-10T20:52:58.361Z,15.00
2023-05-10T20:55:26.369Z,15.10
2023-05-10T20:57:55.719Z,15.10
2023-05-10T21:00:23.721Z,15.20
2023-05-10T21:02:51.951Z,15.20
2023-05-10T21:05:20.222Z,15.20
2023-05-10T21:07:49.429Z,15.20
2023-05-10T21:10:17.714Z,15.20
2023-05-10T21:12:46.376Z,15.20
2023-05-10T21:15:15.775Z,15.20
2023-05-10T21:17:43.770Z,15.20
2023-05-10T21:20:13.308Z,15.20
2023-05-10T21:22:41.369Z,15.30
2023-05-10T21:25:10.171Z,15.30
2023-05-10T21:27:38.114Z,15.30
2023-05-10T21:30:07.394Z,15.40
2023-05-10T21:32:36.771Z,15.40
2023-05-10T21:35:05.354Z,15.40
2023-05-10T21:37:33.335Z,15.40
2023-05-10T21:40:01.951Z,15.30
2023-05-10T21:42:30.152Z,15.30
2023-05-10T21:44:58.214Z,15.30
2023-05-10T21:47:26.280Z,15.30
2023-05-10T21:49:55.617Z,15.20
2023-05-10T21:52:23.657Z,15.10
2023-05-10T21:54:51.634Z,15.10
2023-05-10T21:57:21.385Z,15.10
2023-05-10T21:59:49.319Z,15.10
2023-05-10T22:02:17.397Z,15.10
2023-05-10T22:04:45.397Z,15.10
2023-05-10T22:07:16.492Z,15.10
2023-05-10T22:09:44.574Z,15.10
2023-05-10T22:12:13.183Z,15.10
2023-05-10T22:14:41.149Z,15.10
2023-05-10T22:17:09.206Z,15.10
2023-05-10T22:19:37.264Z,15.10
2023-05-10T22:22:05.232Z,15.00
2023-05-10T22:24:34.530Z,15.00
2023-05-10T22:27:02.796Z,15.00
2023-05-10T22:29:30.958Z,15.00
2023-05-10T22:31:59.373Z,15.00
2023-05-10T22:34:27.351Z,15.00
2023-05-10T22:36:55.324Z,14.80
2023-05-10T22:39:23.425Z,14.80
2023-05-10T22:41:52.750Z,14.90
2023-05-10T22:44:20.784Z,14.90
2023-05-10T22:46:48.839Z,14.90
2023-05-10T22:49:16.866Z,14.90
2023-05-10T22:51:44.841Z,14.90
2023-05-10T22:54:12.821Z,14.90
2023-05-10T22:56:40.847Z,14.90
2023-05-10T22:59:11.157Z,14.90
2023-05-10T23:01:39.226Z,14.90
2023-05-10T23:04:07.476Z,14.80
2023-05-10T23:06:35.536Z,14.90
2023-05-10T23:09:03.862Z,14.90
2023-05-10T23:11:31.861Z,14.90
2023-05-10T23:13:59.913Z,14.90
2023-05-10T23:16:29.544Z,14.90
2023-05-10T23:18:57.605Z,14.90
2023-05-10T23:21:25.766Z,15.00
2023-05-10T23:23:54.407Z,15.00
2023-05-10T23:26:22.753Z,15.00
2023-05-10T23:28:50.690Z,15.00
2023-05-10T23:31:18.786Z,15.00
2023-05-10T23:33:48.168Z,15.00
2023-05-10T23:36:16.164Z,15.00
2023-05-10T23:38:44.120Z,15.10
2023-05-10T23:41:12.325Z,15.00
2023-05-10T23:43:40.283Z,15.00
2023-05-10T23:46:08.280Z,15.00
2023-05-10T23:48:36.218Z,15.10
2023-05-10T23:51:05.949Z,15.10
2023-05-10T23:53:33.921Z,15.00
2023-05-10T23:56:01.953Z,14.90
2023-05-10T23:58:29.910Z,14.90
